createdAt,value
2018-04-13T00:00:19.938Z,94834.72
2018-04-13T00:02:45.887Z,94836.12
2018-04-13T00:05:11.905Z,94837.88
2018-04-13T00:07:37.923Z,94841.24
2018-04-13T00:10:03.867Z,94842.59
2018-04-13T00:12:29.855Z,94849.33
2018-04-13T00:14:55.832Z,94849.10
2018-04-13T00:17:21.820Z,94848.93
2018-04-13T00:19:47.845Z,94848.91
2018-04-13T00:22:13.822Z,94852.07
2018-04-13T00:24:39.810Z,94854.03
2018-04-13T00:27:05.792Z,94862.49
2018-04-13T00:29:31.821Z,94865.66
2018-04-13T00:31:57.813Z,94868.42
2018-04-13T00:34:23.794Z,94865.45
2018-04-13T00:36:49.775Z,94859.27
2018-04-13T00:39:15.787Z,94862.64
2018-04-13T00:41:41.743Z,94857.52
2018-04-13T00:44:07.724Z,94849.00
2018-04-13T00:46:33.741Z,94844.06
2018-04-13T00:48:59.726Z,94848.20
2018-04-13T00:51:25.672Z,94851.97
2018-04-13T00:53:51.689Z,94855.31
2018-04-13T00:56:17.698Z,94862.22
2018-04-13T00:58:43.675Z,94855.89
2018-04-13T01:01:09.699Z,94855.31
2018-04-13T01:03:35.682Z,94861.41
2018-04-13T01:06:01.699Z,94859.45
2018-04-13T01:08:27.712Z,94859.62
2018-04-13T01:10:53.696Z,94855.48
2018-04-13T01:13:19.693Z,94854.71
2018-04-13T01:15:45.654Z,94861.01
2018-04-13T01:18:11.634Z,94866.53
2018-04-13T01:20:37.621Z,94866.73
2018-04-13T01:23:03.600Z,94857.07
2018-04-13T01:25:29.580Z,94847.00
2018-04-13T01:27:55.594Z,94850.74
2018-04-13T01:30:21.539Z,94852.70
2018-04-13T01:32:47.519Z,94842.84
2018-04-13T01:35:13.496Z,94844.22
2018-04-13T01:37:39.480Z,94845.59
2018-04-13T01:40:05.529Z,94850.31
2018-04-13T01:42:31.504Z,94847.95
2018-04-13T01:44:57.450Z,94853.48
2018-04-13T01:47:23.433Z,94852.27
2018-04-13T01:49:49.413Z,94858.20
2018-04-13T01:52:15.399Z,94857.80
2018-04-13T01:54:41.381Z,94861.54
2018-04-13T01:57:07.391Z,94869.05
2018-04-13T01:59:33.348Z,94873.39
2018-04-13T02:01:59.360Z,94880.88
2018-04-13T02:04:25.366Z,94883.03
2018-04-13T02:06:51.311Z,94871.58
2018-04-13T02:09:17.296Z,94874.58
2018-04-13T02:11:43.288Z,94860.53
2018-04-13T02:14:09.270Z,94858.75
2018-04-13T02:16:35.251Z,94859.16
2018-04-13T02:19:01.227Z,94861.91
2018-04-13T02:21:27.212Z,94868.25
2018-04-13T02:23:53.195Z,94869.80
2018-04-13T02:26:19.207Z,94872.97
2018-04-13T02:28:45.151Z,94861.14
2018-04-13T02:31:11.135Z,94856.59
2018-04-13T02:33:37.106Z,94859.53
2018-04-13T02:36:03.119Z,94867.24
2018-04-13T02:40:55.072Z,94872.54
2018-04-13T02:43:21.096Z,94880.25
2018-04-13T02:45:47.074Z,94888.53
2018-04-13T02:48:13.033Z,94886.95
2018-04-13T02:50:39.062Z,94888.91
2018-04-13T02:53:05.041Z,94894.27
2018-04-13T02:55:31.016Z,94892.67
2018-04-13T02:57:56.995Z,94890.12
2018-04-13T03:00:22.975Z,94895.64
2018-04-13T03:02:48.968Z,94897.20
2018-04-13T03:05:14.954Z,94894.84
2018-04-13T03:07:40.974Z,94892.65
2018-04-13T03:10:06.926Z,94900.13
2018-04-13T03:12:32.909Z,94896.39
2018-04-13T03:14:58.885Z,94892.25
2018-04-13T03:17:24.868Z,94893.22
2018-04-13T03:19:50.889Z,94897.00
2018-04-13T03:22:16.829Z,94888.71
2018-04-13T03:24:42.811Z,94892.05
2018-04-13T03:27:08.823Z,94890.67
2018-04-13T03:29:34.779Z,94894.41
2018-04-13T03:32:00.758Z,94905.45
2018-04-13T03:34:26.786Z,94903.88
2018-04-13T03:36:52.726Z,94915.30
2018-04-13T03:39:18.709Z,94926.34
2018-04-13T03:41:44.733Z,94930.11
2018-04-13T03:44:10.676Z,94937.59
2018-04-13T03:46:36.655Z,94934.83
2018-04-13T03:49:02.639Z,94926.95
2018-04-13T03:51:28.612Z,94927.92
2018-04-13T03:53:54.631Z,94927.52
2018-04-13T03:56:20.605Z,94927.52
2018-04-13T03:58:46.616Z,94928.70
2018-04-13T04:01:12.563Z,94934.02
2018-04-13T04:03:38.577Z,94937.19
2018-04-13T04:06:04.551Z,94935.98
2018-04-13T04:08:31.397Z,94931.44
2018-04-13T04:10:57.397Z,94931.44
2018-04-13T04:13:23.331Z,94932.80
2018-04-13T04:15:49.347Z,94924.11
2018-04-13T04:18:15.327Z,94934.95
2018-04-13T04:20:41.338Z,94937.68
2018-04-13T04:23:07.315Z,94938.66
2018-04-13T04:25:33.314Z,94944.59
2018-04-13T04:27:59.284Z,94944.59
2018-04-13T04:30:25.304Z,94955.63
2018-04-13T04:32:51.280Z,94957.22
2018-04-13T04:35:17.263Z,94963.11
2018-04-13T04:37:43.279Z,94961.96
2018-04-13T04:40:09.232Z,94963.37
2018-04-13T04:42:35.219Z,94966.16
2018-04-13T04:45:01.203Z,94968.11
2018-04-13T04:47:27.213Z,94971.28
2018-04-13T04:49:53.326Z,94978.18
2018-04-13T04:52:19.316Z,94986.47
2018-04-13T04:54:45.312Z,94986.06
2018-04-13T04:57:11.400Z,94988.08
2018-04-13T04:59:37.501Z,94995.76
2018-04-13T05:02:03.417Z,94993.20
2018-04-13T05:04:29.407Z,94991.41
2018-04-13T05:06:55.398Z,94998.72
2018-04-13T05:09:21.413Z,94997.74
2018-04-13T05:11:47.369Z,94994.75
2018-04-13T05:14:13.384Z,95004.62
2018-04-13T05:16:39.348Z,95002.63
2018-04-13T05:19:05.462Z,95004.98
2018-04-13T05:21:31.462Z,95014.28
2018-04-13T05:23:57.492Z,95013.67
2018-04-13T05:26:23.478Z,95011.55
2018-04-13T05:28:49.541Z,95013.10
2018-04-13T05:31:15.480Z,95018.45
2018-04-13T05:33:41.642Z,95015.70
2018-04-13T05:36:07.613Z,95024.75
2018-04-13T05:38:33.626Z,95030.28
2018-04-13T05:40:59.584Z,95033.88
2018-04-13T05:43:25.598Z,95026.16
2018-04-13T06:00:52.481Z,95028.75
2018-04-13T06:03:26.420Z,95034.27
2018-04-13T06:05:52.466Z,95035.08
2018-04-13T06:08:18.507Z,95041.59
2018-04-13T06:10:44.540Z,95042.36
2018-04-13T06:13:13.048Z,95041.59
2018-04-13T06:15:39.050Z,95050.27
2018-04-13T06:18:05.060Z,95047.11
2018-04-13T06:20:31.012Z,95052.43
2018-04-13T06:22:57.021Z,95055.39
2018-04-13T06:25:22.986Z,95057.75
2018-04-13T06:27:48.985Z,95056.57
2018-04-13T06:30:15.010Z,95055.19
2018-04-13T06:32:40.975Z,95064.45
2018-04-13T06:35:06.961Z,95064.45
2018-04-13T06:37:32.989Z,95075.50
2018-04-13T06:39:58.945Z,95068.22
2018-04-13T06:42:24.963Z,95075.13
2018-04-13T06:44:50.943Z,95074.73
2018-04-13T06:47:16.962Z,95073.34
2018-04-13T06:49:42.949Z,95075.91
2018-04-13T06:52:08.929Z,95074.92
2018-04-13T06:54:34.910Z,95077.11
2018-04-13T06:57:00.899Z,95079.30
2018-04-13T06:59:26.913Z,95071.22
2018-04-13T07:01:52.895Z,95073.58
2018-04-13T07:04:18.873Z,95076.34
2018-04-13T07:06:44.856Z,95074.55
2018-04-13T07:09:10.841Z,95069.80
2018-04-13T07:11:36.872Z,95072.56
2018-04-13T07:14:02.916Z,95076.14
2018-04-13T07:16:28.888Z,95073.78
2018-04-13T07:18:54.833Z,95065.09
2018-04-13T07:21:20.840Z,95065.86
2018-04-13T07:23:46.823Z,95072.40
2018-04-13T07:26:12.799Z,95075.16
2018-04-13T07:28:38.786Z,95075.53
2018-04-13T07:31:04.808Z,95075.73
2018-04-13T07:33:30.799Z,95075.33
2018-04-13T07:35:56.773Z,95070.21
2018-04-13T07:38:22.760Z,95070.01
2018-04-13T07:40:48.751Z,95070.81
2018-04-13T07:43:14.741Z,95069.84
2018-04-13T07:45:40.758Z,95070.23
2018-04-13T07:48:06.739Z,95070.03
2018-04-13T07:50:32.687Z,95074.58
2018-04-13T07:52:58.670Z,95073.61
2018-04-13T07:55:24.645Z,95078.32
2018-04-13T07:57:50.656Z,95073.61
2018-04-13T08:00:16.669Z,95073.44
2018-04-13T08:02:42.652Z,95066.53
2018-04-13T08:05:08.662Z,95067.91
2018-04-13T08:07:34.875Z,95070.27
2018-04-13T08:10:00.692Z,95061.98
2018-04-13T08:12:26.711Z,95064.54
2018-04-13T08:14:52.698Z,95063.77
2018-04-13T08:17:18.721Z,95062.19
2018-04-13T08:19:44.691Z,95061.98
2018-04-13T08:22:10.706Z,95061.41
2018-04-13T08:24:36.652Z,95066.33
2018-04-13T08:27:02.676Z,95058.84
2018-04-13T08:29:28.657Z,95063.19
2018-04-13T08:31:54.678Z,95060.23
2018-04-13T08:34:20.691Z,95065.58
2018-04-13T08:36:46.708Z,95057.49
2018-04-13T08:39:12.659Z,95057.67
2018-04-13T08:41:38.636Z,95055.91
2018-04-13T08:44:04.693Z,95052.75
2018-04-13T08:46:30.686Z,95052.14
2018-04-13T08:48:56.792Z,95048.61
2018-04-13T08:51:22.648Z,95038.73
2018-04-13T08:53:48.662Z,95047.02
2018-04-13T08:56:14.660Z,95043.52
2018-04-13T08:58:40.695Z,95050.62
2018-04-13T09:01:06.676Z,95052.58
2018-04-13T09:03:32.666Z,95051.02
2018-04-13T09:05:58.736Z,95050.22
2018-04-13T09:08:24.688Z,95053.95
2018-04-13T09:10:50.714Z,95049.64
2018-04-13T09:13:16.693Z,95054.19
2018-04-13T09:15:42.672Z,95052.00
2018-04-13T09:18:08.700Z,95052.00
2018-04-13T09:20:34.699Z,95051.02
2018-04-13T09:23:00.757Z,95050.05
2018-04-13T09:25:26.736Z,95039.39
2018-04-13T09:27:52.719Z,95036.44
2018-04-13T09:30:18.710Z,95034.48
2018-04-13T09:32:44.717Z,95035.45
2018-04-13T09:35:10.680Z,95032.12
2018-04-13T09:37:37.147Z,95027.62
2018-04-13T09:40:03.171Z,95029.02
2018-04-13T09:42:29.118Z,95025.81
2018-04-13T09:44:55.176Z,95014.77
2018-04-13T09:47:21.174Z,95013.64
2018-04-13T09:49:47.243Z,95021.93
2018-04-13T09:52:13.223Z,95016.20
2018-04-13T09:54:39.257Z,95016.00
2018-04-13T09:57:05.275Z,95012.98
2018-04-13T09:59:31.303Z,95015.20
2018-04-13T10:01:57.265Z,95016.14
2018-04-13T10:04:23.241Z,95019.75
2018-04-13T10:06:49.247Z,95016.41
2018-04-13T10:09:15.303Z,95019.17
2018-04-13T10:11:41.254Z,95014.83
2018-04-13T10:14:07.264Z,95013.64
2018-04-13T10:16:33.250Z,95012.06
2018-04-13T10:18:59.230Z,95005.16
2018-04-13T10:21:25.235Z,95005.38
2018-04-13T10:23:51.252Z,95006.16
2018-04-13T10:26:17.209Z,95006.02
2018-04-13T10:28:43.225Z,94994.73
2018-04-13T10:31:09.207Z,94995.94
2018-04-13T10:33:35.183Z,95000.28
2018-04-13T10:36:01.168Z,94998.33
2018-04-13T10:38:27.181Z,94999.94
2018-04-13T10:40:53.190Z,95001.49
2018-04-13T10:43:19.164Z,94998.58
2018-04-13T10:45:45.181Z,94996.42
2018-04-13T10:48:11.256Z,94990.73
2018-04-13T10:50:37.199Z,94998.41
2018-04-13T10:53:03.210Z,94994.06
2018-04-13T10:55:29.203Z,94995.45
2018-04-13T10:57:55.178Z,94992.28
2018-04-13T11:00:21.164Z,94992.11
2018-04-13T11:02:47.156Z,94990.92
2018-04-13T11:05:13.152Z,94988.97
2018-04-13T11:07:39.152Z,94986.81
2018-04-13T11:10:05.217Z,94989.57
2018-04-13T11:12:31.171Z,94990.78
2018-04-13T11:14:57.149Z,94983.06
2018-04-13T11:17:23.139Z,94985.63
2018-04-13T11:19:49.186Z,94983.69
2018-04-13T11:22:15.180Z,94982.52
2018-04-13T11:24:41.202Z,94978.56
2018-04-13T11:27:07.255Z,94975.02
2018-04-13T11:29:33.275Z,94977.61
2018-04-13T11:31:59.224Z,94976.43
2018-04-13T11:34:25.211Z,94972.52
2018-04-13T11:36:51.196Z,94969.55
2018-04-13T11:39:17.184Z,94971.16
2018-04-13T11:41:43.207Z,94972.14
2018-04-13T11:44:09.184Z,94965.63
2018-04-13T11:46:35.169Z,94966.63
2018-04-13T11:49:01.178Z,94971.56
2018-04-13T11:51:27.159Z,94960.28
2018-04-13T11:53:53.143Z,94960.86
2018-04-13T11:56:19.144Z,94955.53
2018-04-13T11:58:45.125Z,94957.89
2018-04-13T12:01:11.162Z,94958.30
2018-04-13T12:03:37.320Z,94959.45
2018-04-13T12:06:03.370Z,94950.16
2018-04-13T12:08:29.375Z,94952.89
2018-04-13T12:10:55.347Z,94952.48
2018-04-13T12:13:21.373Z,94952.72
2018-04-13T12:15:47.411Z,94949.73
2018-04-13T12:18:13.334Z,94952.47
2018-04-13T12:20:39.471Z,94953.67
2018-04-13T12:23:05.451Z,94953.48
2018-04-13T12:25:31.468Z,94946.92
2018-04-13T12:27:57.484Z,94951.46
2018-04-13T12:30:23.513Z,94947.31
2018-04-13T12:32:49.464Z,94944.95
2018-04-13T12:35:15.443Z,94938.86
2018-04-13T12:37:41.877Z,94931.12
2018-04-13T12:40:07.912Z,94926.98
2018-04-13T12:42:33.888Z,94931.52
2018-04-13T12:44:59.867Z,94924.44
2018-04-13T12:47:26.164Z,94924.04
2018-04-13T12:49:52.140Z,94923.03
2018-04-13T12:52:18.905Z,94924.02
2018-04-13T12:54:45.093Z,94918.49
2018-04-13T12:57:10.907Z,94917.69
2018-04-13T12:59:36.859Z,94919.64
2018-04-13T13:02:03.144Z,94907.44
2018-04-13T13:04:29.314Z,94907.61
2018-04-13T13:06:56.112Z,94904.05
2018-04-13T13:09:22.104Z,94906.63
2018-04-13T13:11:48.471Z,94912.53
2018-04-13T13:14:15.558Z,94909.57
2018-04-13T13:16:41.535Z,94908.02
2018-04-13T13:19:07.557Z,94911.36
2018-04-13T13:21:33.824Z,94908.19
2018-04-13T13:23:59.800Z,94904.05
2018-04-13T13:26:25.875Z,94905.42
2018-04-13T13:28:51.852Z,94905.42
2018-04-13T13:31:17.875Z,94900.70
2018-04-13T13:33:43.877Z,94893.80
2018-04-13T13:36:09.901Z,94900.70
2018-04-13T13:38:35.849Z,94901.51
2018-04-13T13:41:01.869Z,94902.89
2018-04-13T13:43:27.846Z,94895.18
2018-04-13T13:45:53.830Z,94896.79
2018-04-13T13:48:19.831Z,94897.16
2018-04-13T13:50:45.837Z,94892.04
2018-04-13T13:53:11.819Z,94892.59
2018-04-13T13:55:37.842Z,94897.56
2018-04-13T13:58:03.827Z,94892.69
2018-04-13T14:00:29.812Z,94890.73
2018-04-13T14:02:55.788Z,94893.69
2018-04-13T14:05:21.802Z,94893.27
2018-04-13T14:07:47.781Z,94890.68
2018-04-13T14:10:13.754Z,94893.42
2018-04-13T14:12:39.744Z,94894.05
2018-04-13T14:15:05.761Z,94899.58
2018-04-13T14:17:31.713Z,94901.13
2018-04-13T14:19:57.695Z,94895.61
2018-04-13T14:22:23.670Z,94899.92
2018-04-13T14:24:49.643Z,94904.07
2018-04-13T14:27:15.664Z,94909.39
2018-04-13T14:29:41.644Z,94910.37
2018-04-13T14:32:07.631Z,94907.41
2018-04-13T14:34:33.676Z,94916.28
2018-04-13T14:36:59.615Z,94915.30
2018-04-13T14:39:25.599Z,94914.50
2018-04-13T14:41:51.585Z,94909.95
2018-04-13T14:44:17.591Z,94912.94
2018-04-13T14:46:43.588Z,94911.73
2018-04-13T14:49:09.579Z,94922.38
2018-04-13T14:51:35.538Z,94923.19
2018-04-13T14:54:01.563Z,94925.14
2018-04-13T14:56:27.516Z,94931.07
2018-04-13T14:58:53.500Z,94925.74
2018-04-13T15:01:19.507Z,94921.02
2018-04-13T15:03:45.475Z,94929.14
2018-04-13T15:06:11.488Z,94931.34
2018-04-13T15:08:37.471Z,94929.38
2018-04-13T15:11:03.455Z,94929.21
2018-04-13T15:13:29.442Z,94935.34
2018-04-13T15:15:55.465Z,94933.15
2018-04-13T15:18:21.471Z,94932.58
2018-04-13T15:20:47.486Z,94943.27
2018-04-13T15:23:13.470Z,94943.70
2018-04-13T15:25:39.471Z,94938.57
2018-04-13T15:28:05.450Z,94941.14
2018-04-13T15:30:31.455Z,94939.80
2018-04-13T15:32:57.413Z,94943.59
2018-04-13T15:35:23.501Z,94943.02
2018-04-13T15:37:49.521Z,94938.47
2018-04-13T15:40:15.578Z,94942.48
2018-04-13T15:42:41.603Z,94935.39
2018-04-13T15:45:07.631Z,94939.27
2018-04-13T15:47:33.661Z,94941.83
2018-04-13T15:50:00.060Z,94941.98
2018-04-13T15:52:26.029Z,94944.38
2018-04-13T15:54:52.035Z,94948.30
2018-04-13T15:57:18.015Z,94944.12
2018-04-13T15:59:43.995Z,94948.67
2018-04-13T16:02:09.942Z,94952.80
2018-04-13T16:04:35.924Z,94958.14
2018-04-13T16:07:01.908Z,94961.70
2018-04-13T16:09:27.931Z,94970.02
2018-04-13T16:11:53.913Z,94980.09
2018-04-13T16:14:19.897Z,94989.80
2018-04-13T16:16:46.046Z,94997.28
2018-04-13T16:19:12.056Z,94991.55
2018-04-13T16:21:38.015Z,94987.98
2018-04-13T16:24:04.030Z,94986.17
2018-04-13T16:26:30.066Z,94988.16
2018-04-13T16:28:56.048Z,94986.95
2018-04-13T16:31:22.678Z,94994.04
2018-04-13T16:33:48.706Z,94996.43
2018-04-13T16:36:14.696Z,94996.03
2018-04-13T16:38:40.709Z,95003.34
2018-04-13T16:41:06.654Z,94995.42
2018-04-13T16:43:32.637Z,94998.81
2018-04-13T16:45:58.692Z,95000.77
2018-04-13T16:48:24.657Z,94997.41
2018-04-13T16:50:53.034Z,94995.22
2018-04-13T16:53:21.288Z,95003.89
2018-04-13T16:55:47.417Z,95001.53
2018-04-13T16:58:13.374Z,95004.30
2018-04-13T17:00:39.941Z,95005.30
2018-04-13T17:03:05.888Z,95013.19
2018-04-13T17:05:31.904Z,95017.93
2018-04-13T17:07:57.860Z,95027.98
2018-04-13T17:10:23.857Z,95033.73
2018-04-13T17:12:49.884Z,95041.83
2018-04-13T17:15:15.835Z,95044.61
2018-04-13T17:17:41.901Z,95049.39
2018-04-13T17:20:07.888Z,95053.94
2018-04-13T17:22:33.900Z,95055.14
2018-04-13T17:24:59.871Z,95064.44
2018-04-13T17:27:25.862Z,95071.35
2018-04-13T17:29:51.868Z,95083.21
2018-04-13T17:32:17.850Z,95087.53
2018-04-13T17:34:43.866Z,95093.44
2018-04-13T17:37:09.854Z,95102.30
2018-04-13T17:39:35.831Z,95101.32
2018-04-13T17:42:01.959Z,95110.97
2018-04-13T17:44:27.914Z,95107.63
2018-04-13T17:46:54.072Z,95112.75
2018-04-13T17:49:20.179Z,95122.02
2018-04-13T17:51:46.161Z,95121.82
2018-04-13T17:54:12.104Z,95135.23
2018-04-13T17:56:38.094Z,95136.80
2018-04-13T17:59:04.117Z,95141.14
2018-04-13T18:01:30.066Z,95148.45
2018-04-13T18:03:56.067Z,95146.06
2018-04-13T18:06:22.054Z,95147.44
2018-04-13T18:08:48.080Z,95151.99
2018-04-13T18:11:14.075Z,95155.16
2018-04-13T18:13:40.091Z,95153.37
2018-04-13T18:16:06.093Z,95149.83
2018-04-13T18:18:32.091Z,95159.50
2018-04-13T18:20:58.130Z,95158.47
2018-04-13T18:23:24.126Z,95160.08
2018-04-13T18:25:50.109Z,95161.66
2018-04-13T18:28:16.105Z,95165.41
2018-04-13T18:30:42.218Z,95164.83
2018-04-13T18:33:08.240Z,95171.57
2018-04-13T18:35:34.220Z,95172.17
2018-04-13T18:38:00.232Z,95179.08
2018-04-13T18:40:26.213Z,95181.04
2018-04-13T18:42:52.353Z,95186.77
2018-04-13T18:45:18.335Z,95198.56
2018-04-13T18:47:44.352Z,95206.25
2018-04-13T18:50:10.308Z,95212.16
2018-04-13T18:52:36.325Z,95223.38
2018-04-13T18:55:02.305Z,95223.00
2018-04-13T18:57:28.599Z,95233.05
2018-04-13T18:59:54.587Z,95226.78
2018-04-13T19:02:20.578Z,95229.71
2018-04-13T19:04:46.604Z,95231.50
2018-04-13T19:07:13.896Z,95236.22
2018-04-13T19:09:39.888Z,95238.98
2018-04-13T19:12:05.927Z,95229.31
2018-04-13T19:14:31.937Z,95236.02
2018-04-13T19:16:57.994Z,95234.23
2018-04-13T19:19:23.988Z,95240.53
2018-04-13T19:21:49.978Z,95241.88
2018-04-13T19:24:15.992Z,95248.96
2018-04-13T19:26:41.953Z,95258.83
2018-04-13T19:29:07.932Z,95260.79
2018-04-13T19:31:33.925Z,95264.12
2018-04-13T19:33:59.925Z,95269.45
2018-04-13T19:36:25.931Z,95266.28
2018-04-13T19:38:51.933Z,95263.28
2018-04-13T19:41:17.957Z,95262.51
2018-04-13T19:43:46.988Z,95268.61
2018-04-13T19:46:12.971Z,95265.03
2018-04-13T19:48:38.929Z,95271.95
2018-04-13T19:51:04.943Z,95272.92
2018-04-13T19:53:30.995Z,95274.09
2018-04-13T19:55:56.942Z,95282.56
2018-04-13T19:58:22.968Z,95285.32
2018-04-13T20:00:48.949Z,95282.56
2018-04-13T20:03:14.964Z,95283.53
2018-04-13T20:05:40.944Z,95280.77
2018-04-13T20:08:06.893Z,95283.73
2018-04-13T20:10:32.916Z,95278.61
2018-04-13T20:12:58.899Z,95280.16
2018-04-13T20:15:24.881Z,95278.81
2018-04-13T20:17:50.936Z,95280.40
2018-04-13T20:20:19.556Z,95277.23
2018-04-13T20:22:46.081Z,95280.16
2018-04-13T20:25:13.127Z,95285.12
2018-04-13T20:27:39.685Z,95286.09
2018-04-13T20:30:06.238Z,95287.07
2018-04-13T20:32:32.219Z,95290.03
2018-04-13T20:34:58.244Z,95288.66
2018-04-13T20:37:24.224Z,95291.02
2018-04-13T20:39:50.209Z,95297.31
2018-04-13T20:42:16.197Z,95304.83
2018-04-13T20:44:42.190Z,95310.35
2018-04-13T20:47:08.213Z,95313.11
2018-04-13T20:49:34.197Z,95316.86
2018-04-13T20:52:00.160Z,95312.27
2018-04-13T20:54:26.163Z,95314.06
2018-04-13T20:56:52.115Z,95328.88
2018-04-13T20:59:18.109Z,95321.33
2018-04-13T21:01:44.087Z,95317.97
2018-04-13T21:04:10.131Z,95324.09
2018-04-13T21:06:36.094Z,95324.09
2018-04-13T21:09:02.107Z,95321.50
2018-04-13T21:11:28.066Z,95323.12
2018-04-13T21:13:54.084Z,95326.05
2018-04-13T21:16:20.040Z,95321.91
2018-04-13T21:18:46.052Z,95320.52
2018-04-13T21:21:12.059Z,95326.63
2018-04-13T21:23:38.001Z,95322.68
2018-04-13T21:26:04.029Z,95324.47
2018-04-13T21:28:30.048Z,95321.87
2018-04-13T21:30:56.030Z,95327.80
2018-04-13T21:33:22.020Z,95328.78
2018-04-13T21:35:48.029Z,95331.14
2018-04-13T21:38:14.035Z,95335.69
2018-04-13T21:40:39.997Z,95336.66
2018-04-13T21:43:05.981Z,95338.61
2018-04-13T21:45:31.976Z,95337.84
2018-04-13T21:47:57.989Z,95340.20
2018-04-13T21:50:23.968Z,95346.91
2018-04-13T21:52:49.957Z,95350.41
2018-04-13T21:55:15.940Z,95353.61
2018-04-13T21:57:41.996Z,95351.25
2018-04-13T22:00:07.935Z,95354.01
2018-04-13T22:02:33.925Z,95353.17
2018-04-13T22:04:59.939Z,95354.55
2018-04-13T22:07:25.918Z,95351.98
2018-04-13T22:09:51.904Z,95357.89
2018-04-13T22:12:17.884Z,95353.74
2018-04-13T22:14:43.883Z,95359.27
2018-04-13T22:17:09.896Z,95355.32
2018-04-13T22:19:35.917Z,95353.94
2018-04-13T22:22:01.866Z,95359.06
2018-04-13T22:24:27.883Z,95363.61
2018-04-13T22:26:53.863Z,95363.20
2018-04-13T22:29:19.804Z,95366.54
2018-04-13T22:31:45.789Z,95363.78
2018-04-13T22:34:11.810Z,95372.06
2018-04-13T22:36:37.749Z,95371.09
2018-04-13T22:39:03.767Z,95376.21
2018-04-13T22:41:29.715Z,95374.83
2018-04-13T22:43:55.690Z,95379.17
2018-04-13T22:46:21.741Z,95381.53
2018-04-13T22:48:47.717Z,95379.58
2018-04-13T22:51:13.680Z,95384.29
2018-04-13T22:53:39.696Z,95389.81
2018-04-13T22:56:05.640Z,95385.27
2018-04-13T22:58:31.624Z,95380.72
2018-04-13T23:00:57.595Z,95388.03
2018-04-13T23:03:23.590Z,95386.25
2018-04-13T23:05:49.561Z,95398.27
2018-04-13T23:08:15.547Z,95393.72
2018-04-13T23:10:41.527Z,95394.33
2018-04-13T23:13:07.514Z,95392.54
2018-04-13T23:15:33.495Z,95393.92
2018-04-13T23:17:59.509Z,95390.34
2018-04-13T23:20:25.483Z,95396.85
2018-04-13T23:22:51.466Z,95394.09
2018-04-13T23:25:17.489Z,95402.38
2018-04-13T23:27:43.442Z,95405.95
2018-04-13T23:30:09.428Z,95408.70
2018-04-13T23:32:35.403Z,95403.76
2018-04-13T23:35:01.414Z,95412.05
2018-04-13T23:37:27.425Z,95407.91
2018-04-13T23:39:53.367Z,95406.11
2018-04-13T23:42:19.345Z,95405.71
2018-04-13T23:44:45.363Z,95406.52
2018-04-13T23:47:11.301Z,95414.59
2018-04-13T23:49:37.324Z,95409.48
2018-04-13T23:52:03.306Z,95411.03
2018-04-13T23:54:29.313Z,95411.84
2018-04-13T23:56:55.292Z,95406.89
2018-04-13T23:59:21.268Z,95413.95
